createdAt,value
2023-03-28T00:14:26.428Z,0.8
2023-03-28T00:29:26.465Z,0.6
2023-03-28T00:44:26.408Z,0.6
2023-03-28T00:59:26.440Z,0.6
2023-03-28T01:14:26.414Z,0.5
2023-03-28T01:29:26.402Z,0.4
2023-03-28T01:44:26.319Z,0.3
2023-03-28T01:59:26.395Z,0.2
2023-03-28T02:14:26.436Z,0.2
2023-03-28T02:29:26.412Z,0.1
2023-03-28T02:44:27.023Z,-0.1
2023-03-28T02:59:26.424Z,-0.1
2023-03-28T03:14:26.418Z,-0.2
2023-03-28T03:29:26.435Z,-0.3
2023-03-28T03:44:26.442Z,-0.5
2023-03-28T03:59:26.417Z,-0.4
2023-03-28T04:14:26.406Z,-0.5
2023-03-28T04:29:26.418Z,-0.7
2023-03-28T04:44:26.435Z,-0.8
2023-03-28T04:59:26.330Z,-0.9
2023-03-28T05:14:26.424Z,-1
2023-03-28T05:29:26.432Z,-0.8
2023-03-28T05:44:26.428Z,-0.9
2023-03-28T05:59:26.393Z,-0.8
2023-03-28T06:14:26.413Z,-0.5
2023-03-28T06:29:26.397Z,-0.2
2023-03-28T06:44:26.401Z,0.1
2023-03-28T06:59:26.414Z,0.6
2023-03-28T07:14:26.438Z,1
2023-03-28T07:29:26.415Z,1.6
2023-03-28T07:44:26.445Z,2.2
2023-03-28T07:59:26.433Z,2.6
2023-03-28T08:14:26.413Z,3.4
2023-03-28T08:29:26.417Z,3.7
2023-03-28T08:44:26.423Z,3.9
2023-03-28T08:59:26.407Z,4.4
2023-03-28T09:14:26.439Z,4.6
2023-03-28T09:29:26.404Z,4.8
2023-03-28T09:44:26.460Z,5.4
2023-03-28T09:59:28.473Z,5.7
2023-03-28T10:14:26.447Z,5.7
2023-03-28T10:29:26.422Z,5.9
2023-03-28T10:44:26.417Z,6.1
2023-03-28T10:59:26.427Z,6.9
2023-03-28T11:14:26.405Z,6.6
2023-03-28T11:29:36.792Z,7.1
2023-03-28T11:44:26.443Z,7.4
2023-03-28T11:59:26.453Z,7.8
2023-03-28T12:14:26.416Z,7.7
2023-03-28T12:29:26.315Z,8.4
2023-03-28T12:44:26.323Z,8.8
2023-03-28T12:59:26.406Z,8.9
2023-03-28T13:14:26.411Z,9
2023-03-28T13:29:26.412Z,9.4
2023-03-28T13:44:26.445Z,9.4
2023-03-28T13:59:26.372Z,9.6
2023-03-28T14:14:26.435Z,9.6
2023-03-28T14:29:26.333Z,9.9
2023-03-28T14:44:26.428Z,10.4
2023-03-28T14:59:26.441Z,10.6
2023-03-28T15:14:26.419Z,10.3
2023-03-28T15:29:26.457Z,10.6
2023-03-28T15:44:26.365Z,10.2
2023-03-28T15:59:26.448Z,9.6
2023-03-28T16:14:26.449Z,9.4
2023-03-28T16:29:26.413Z,9.1
2023-03-28T16:44:26.439Z,9.1
2023-03-28T16:59:26.393Z,8.9
2023-03-28T17:14:26.439Z,8.7
2023-03-28T17:29:26.412Z,8.6
2023-03-28T17:44:26.451Z,8.4
2023-03-28T17:59:26.435Z,7.7
2023-03-28T18:14:26.431Z,7.1
2023-03-28T18:29:26.454Z,6.8
2023-03-28T18:44:26.409Z,5.9
2023-03-28T18:59:26.343Z,5.9
2023-03-28T19:14:26.425Z,5.8
2023-03-28T19:29:26.396Z,5.6
2023-03-28T19:44:26.423Z,5.6
2023-03-28T19:59:26.417Z,5.2
2023-03-28T20:14:26.424Z,5.3
2023-03-28T20:29:26.313Z,5.4
2023-03-28T20:44:26.415Z,5.3
2023-03-28T20:59:26.420Z,5.3
2023-03-28T21:14:26.425Z,5.4
2023-03-28T21:29:26.417Z,5.3
2023-03-28T21:44:26.426Z,5.5
2023-03-28T21:59:26.442Z,5.6
2023-03-28T22:14:26.420Z,5.6
2023-03-28T22:29:26.431Z,5.7
2023-03-28T22:44:26.434Z,5.7
2023-03-28T22:59:26.447Z,5.7
2023-03-28T23:14:26.418Z,5.8
2023-03-28T23:29:26.432Z,5.9
2023-03-28T23:44:26.415Z,6
2023-03-28T23:59:26.366Z,6.2
